Time;durP1;ratioP1;P1;durP2;ratioP2;P2;SDS_P1;SDS_P2;PMS_P1;PMS_P2;Temp;Humidity;BMP_temperature;BMP_pressure;BME280_temperature;BME280_humidity;BME280_pressure;Samples;Min_cycle;Max_cycle;Signal;HPM_P1;HPM_P2
2021/08/20 00:01:56;;;;;;;5.47;3.35;;;;;;;12.28;90.19;96261.97;6041248;23;20051;-96
2021/08/20 00:04:22;;;;;;;3.97;2.92;;;;;;;11.98;89.66;96212.97;6041486;23;20448;-96
2021/08/20 00:06:48;;;;;;;6.28;3.50;;;;;;;12.12;91.41;96246.84;6045741;23;20022;-96
2021/08/20 00:09:13;;;;;;;5.63;3.30;;;;;;;11.80;90.17;96213.13;6045793;23;20010;-96
2021/08/20 00:11:40;;;;;;;5.05;2.88;;;;;;;12.14;91.17;96265.44;6046140;23;20009;-96
2021/08/20 00:14:07;;;;;;;3.60;2.83;;;;;;;11.86;91.36;96235.78;6046630;23;20116;-96
2021/08/20 00:16:34;;;;;;;4.47;3.13;;;;;;;11.93;92.82;96240.88;6049033;23;20011;-96
2021/08/20 00:19:00;;;;;;;4.75;3.20;;;;;;;12.33;93.52;96302.16;6048639;23;20007;-96
2021/08/20 00:21:25;;;;;;;5.25;3.20;;;;;;;12.03;93.22;96260.56;6048391;23;20433;-96
2021/08/20 00:23:51;;;;;;;5.05;3.28;;;;;;;12.23;93.56;96293.31;6049676;23;20070;-96
2021/08/20 00:26:17;;;;;;;3.88;3.42;;;;;;;12.30;92.21;96300.34;6049039;23;20060;-96
2021/08/20 00:28:42;;;;;;;4.68;3.20;;;;;;;12.03;92.39;96271.44;6048210;23;20009;-96
2021/08/20 00:31:08;;;;;;;5.55;3.00;;;;;;;12.04;93.05;96270.25;6048939;23;20015;-96
2021/08/20 00:33:35;;;;;;;6.45;3.03;;;;;;;11.28;93.27;96153.63;6048700;23;20428;-96
2021/08/20 00:36:02;;;;;;;3.75;3.13;;;;;;;11.90;92.59;96235.59;6049001;23;20444;-96
2021/08/20 00:38:29;;;;;;;4.22;3.33;;;;;;;11.75;92.97;96209.09;6047828;23;20011;-96
2021/08/20 00:40:54;;;;;;;5.53;3.55;;;;;;;11.42;92.99;96167.72;6047810;23;20007;-96
2021/08/20 00:43:22;;;;;;;4.32;3.17;;;;;;;12.07;93.16;96261.88;6047399;23;20013;-96
2021/08/20 00:45:59;;;;;;;5.63;3.28;;;;;;;12.27;93.33;96304.03;6047390;23;20011;-96
2021/08/20 00:48:26;;;;;;;5.00;3.38;;;;;;;11.70;93.10;96209.75;6048214;23;20018;-96
2021/08/20 00:51:07;;;;;;;3.60;3.13;;;;;;;12.34;94.41;96311.81;6049089;23;20010;-96
2021/08/20 00:53:36;;;;;;;4.97;3.50;;;;;;;11.74;94.31;96218.47;6048344;23;20035;-96
2021/08/20 00:56:04;;;;;;;6.15;3.40;;;;;;;12.03;94.39;96253.13;6048894;23;20034;-96
2021/08/20 00:58:31;;;;;;;4.80;3.42;;;;;;;12.35;94.53;96293.50;6071510;23;20007;-96
2021/08/20 01:00:57;;;;;;;4.70;3.15;;;;;;;12.41;94.29;96297.06;6048195;23;20348;-96
2021/08/20 01:03:27;;;;;;;5.57;3.10;;;;;;;11.74;94.52;96202.16;6051387;23;20018;-96
2021/08/20 01:05:54;;;;;;;4.57;3.37;;;;;;;11.86;94.90;96199.66;6051092;23;20007;-96
2021/08/20 01:08:27;;;;;;;7.45;3.55;;;;;;;12.02;94.27;96229.88;6051048;23;20018;-96
2021/08/20 01:10:55;;;;;;;5.45;3.20;;;;;;;11.66;93.07;96181.22;6051739;23;20007;-96
2021/08/20 01:13:21;;;;;;;5.10;3.85;;;;;;;12.22;93.01;96242.81;6052588;23;20432;-96
2021/08/20 01:15:47;;;;;;;4.30;3.55;;;;;;;12.26;94.23;96254.28;6046704;23;20042;-96
2021/08/20 01:18:29;;;;;;;4.63;3.22;;;;;;;12.50;93.14;96261.56;6044707;23;20003;-96
2021/08/20 01:20:58;;;;;;;5.75;3.45;;;;;;;12.50;90.53;96243.25;6044928;23;20002;-96
2021/08/20 01:23:26;;;;;;;5.63;3.70;;;;;;;12.45;91.72;96249.34;6044472;23;20062;-96
2021/08/20 01:25:52;;;;;;;5.05;3.55;;;;;;;12.62;92.28;96298.63;6044316;23;20003;-96
2021/08/20 01:28:17;;;;;;;6.97;3.60;;;;;;;12.23;92.76;96238.13;6044638;23;20078;-96
2021/08/20 01:30:43;;;;;;;4.90;3.22;;;;;;;12.35;94.53;96255.38;6044713;23;20007;-96
2021/08/20 01:33:09;;;;;;;6.22;3.70;;;;;;;12.12;92.86;96216.16;6044598;23;20467;-96
2021/08/20 01:35:35;;;;;;;4.90;3.30;;;;;;;12.07;93.13;96231.94;6044682;23;20142;-96
2021/08/20 01:38:02;;;;;;;6.82;3.78;;;;;;;12.29;94.02;96258.00;6044838;23;20357;-96
2021/08/20 01:40:28;;;;;;;5.72;3.50;;;;;;;12.70;94.43;96299.75;6044697;23;20014;-96
2021/08/20 01:42:53;;;;;;;7.00;3.50;;;;;;;12.21;94.05;96227.72;6044480;23;20007;-96
2021/08/20 01:45:19;;;;;;;6.18;3.78;;;;;;;12.70;92.68;96296.28;6044467;23;20436;-96
2021/08/20 01:51:07;;;;;;;7.47;3.75;;;;;;;12.44;92.81;96256.03;6071416;23;20037;-96
2021/08/20 01:53:32;;;;;;;4.90;3.40;;;;;;;12.41;93.42;96248.81;6045799;23;20007;-96
2021/08/20 01:55:58;;;;;;;6.20;3.63;;;;;;;12.38;94.05;96233.41;6045955;23;20038;-96
2021/08/20 01:58:23;;;;;;;5.65;3.40;;;;;;;12.50;93.42;96256.84;6045754;23;20323;-96
2021/08/20 02:00:49;;;;;;;8.02;3.60;;;;;;;12.60;93.07;96254.78;6045747;23;20463;-96
2021/08/20 02:03:14;;;;;;;5.25;3.30;;;;;;;12.37;92.63;96210.13;6045615;23;20019;-96
2021/08/20 02:05:40;;;;;;;7.60;3.58;;;;;;;12.91;91.83;96294.38;6069112;23;20006;-96
2021/08/20 02:08:06;;;;;;;9.18;3.70;;;;;;;12.37;92.84;96228.44;6045082;23;20023;-96
2021/08/20 02:10:32;;;;;;;5.80;3.58;;;;;;;12.91;93.61;96284.22;6046113;23;20010;-96
2021/08/20 02:12:58;;;;;;;6.05;3.35;;;;;;;12.07;92.12;96144.06;6046006;23;20466;-96
2021/08/20 02:15:23;;;;;;;5.40;3.78;;;;;;;12.94;93.10;96290.69;6045800;23;20011;-96
2021/08/20 02:21:11;;;;;;;5.57;3.65;;;;;;;12.52;93.93;96243.53;6072770;23;20011;-96
2021/08/20 02:23:38;;;;;;;5.47;3.33;;;;;;;12.11;92.91;96154.78;6046937;23;20327;-96
2021/08/20 02:26:05;;;;;;;7.28;3.75;;;;;;;13.00;93.46;96289.53;6046544;23;20013;-96
2021/08/20 02:28:30;;;;;;;6.20;4.03;;;;;;;12.48;93.30;96223.91;6046608;23;20086;-96
2021/08/20 02:30:56;;;;;;;6.57;3.55;;;;;;;12.44;94.33;96217.16;6046819;23;20014;-96
2021/08/20 02:33:22;;;;;;;4.80;3.50;;;;;;;12.48;95.18;96212.25;6047211;23;20428;-96
2021/08/20 02:35:48;;;;;;;91.45;8.75;;;;;;;12.05;94.54;96141.09;6046576;23;20011;-96
2021/08/20 02:38:14;;;;;;;6.18;3.78;;;;;;;12.76;94.32;96251.53;6060567;23;20010;-96
2021/08/20 02:40:40;;;;;;;6.03;4.07;;;;;;;12.06;95.19;96167.81;6057324;23;20003;-96
2021/08/20 02:43:05;;;;;;;6.28;4.10;;;;;;;12.12;94.47;96161.72;6050208;23;20018;-96
2021/08/20 02:45:31;;;;;;;7.78;3.95;;;;;;;12.53;93.81;96211.59;6048560;23;20015;-96
2021/08/20 02:47:57;;;;;;;4.80;3.58;;;;;;;12.14;94.35;96162.72;6048095;23;20013;-96
2021/08/20 02:50:23;;;;;;;12.25;3.70;;;;;;;12.05;94.48;96144.56;6048600;23;20034;-96
2021/08/20 02:52:48;;;;;;;6.03;4.47;;;;;;;12.26;94.76;96174.56;6047830;23;20003;-96
2021/08/20 02:55:14;;;;;;;8.32;4.07;;;;;;;12.78;94.21;96245.59;6048170;23;20031;-96
2021/08/20 02:57:40;;;;;;;9.43;4.00;;;;;;;12.07;94.94;96169.31;6048119;23;20031;-96
2021/08/20 03:00:06;;;;;;;6.25;4.03;;;;;;;12.11;96.54;96146.63;6047865;23;20094;-96
2021/08/20 03:02:32;;;;;;;7.10;4.00;;;;;;;12.90;94.77;96271.81;6048055;23;20344;-96
2021/08/20 03:04:57;;;;;;;5.75;3.75;;;;;;;12.23;94.93;96162.63;6071808;23;20015;-96
2021/08/20 03:07:23;;;;;;;6.25;4.05;;;;;;;13.06;94.58;96284.91;6047419;23;20019;-96
2021/08/20 03:09:49;;;;;;;7.13;4.03;;;;;;;13.08;93.95;96292.63;6048123;23;20007;-96
2021/08/20 03:12:14;;;;;;;7.43;4.10;;;;;;;12.71;94.57;96238.59;6047736;23;20062;-96
2021/08/20 03:14:40;;;;;;;6.03;3.95;;;;;;;13.22;94.25;96312.91;6047143;23;20017;-96
2021/08/20 03:17:05;;;;;;;5.00;3.72;;;;;;;12.91;94.70;96267.84;6070520;23;20373;-96
2021/08/20 03:19:31;;;;;;;8.02;3.80;;;;;;;12.76;94.65;96246.09;6047081;23;20034;-96
2021/08/20 03:21:57;;;;;;;7.70;4.10;;;;;;;12.81;94.86;96239.22;6046323;23;20459;-96
2021/08/20 03:24:22;;;;;;;7.22;3.95;;;;;;;12.87;94.74;96261.84;6045963;23;20318;-96
2021/08/20 03:26:48;;;;;;;5.28;3.75;;;;;;;12.66;94.35;96231.09;6070205;23;20443;-96
2021/08/20 03:29:14;;;;;;;7.65;4.30;;;;;;;12.70;94.48;96237.09;6070005;23;20064;-96
2021/08/20 03:31:40;;;;;;;7.90;4.13;;;;;;;12.58;95.07;96214.41;6046044;23;20011;-96
2021/08/20 03:34:05;;;;;;;9.07;4.03;;;;;;;12.49;94.47;96203.59;6046445;23;20007;-96
2021/08/20 03:36:31;;;;;;;5.72;4.03;;;;;;;12.96;95.68;96267.19;6046283;23;20022;-96
2021/08/20 03:38:56;;;;;;;5.65;3.80;;;;;;;12.82;95.19;96246.91;6045830;23;20058;-96
2021/08/20 03:41:22;;;;;;;7.30;3.97;;;;;;;12.57;94.59;96210.19;6045981;23;20002;-96
2021/08/20 03:43:48;;;;;;;7.05;3.72;;;;;;;13.16;95.36;96299.19;6045912;23;20003;-96
2021/08/20 03:46:15;;;;;;;9.15;4.30;;;;;;;12.88;95.45;96260.63;6045838;23;20033;-96
2021/08/20 03:48:42;;;;;;;9.73;4.32;;;;;;;13.07;95.30;96291.13;6045831;23;20077;-96
2021/08/20 03:51:08;;;;;;;7.70;4.30;;;;;;;12.35;95.91;96179.13;6046438;23;20019;-96
2021/08/20 03:53:34;;;;;;;9.38;4.22;;;;;;;12.29;95.36;96166.19;6046628;23;20009;-96
2021/08/20 03:56:00;;;;;;;7.43;4.18;;;;;;;12.40;95.32;96181.94;6047049;23;20011;-96
2021/08/20 03:58:25;;;;;;;7.45;4.43;;;;;;;13.08;96.05;96287.16;6071045;23;20417;-96
2021/08/20 04:00:53;;;;;;;7.43;4.78;;;;;;;13.11;96.32;96286.97;6048318;23;20038;-96
2021/08/20 04:03:21;;;;;;;9.13;5.10;;;;;;;13.34;95.78;96320.75;6071572;23;20007;-96
2021/08/20 04:05:47;;;;;;;7.88;4.22;;;;;;;13.17;95.65;96295.22;6047777;23;20002;-96
2021/08/20 04:08:13;;;;;;;7.18;4.57;;;;;;;13.30;95.11;96309.28;6052052;23;20037;-96
2021/08/20 04:10:41;;;;;;;9.90;4.97;;;;;;;12.43;94.38;96177.53;6048241;23;20013;-96
2021/08/20 04:13:07;;;;;;;5.78;4.32;;;;;;;13.07;95.59;96275.50;6047050;23;20433;-96
2021/08/20 04:15:34;;;;;;;6.70;4.45;;;;;;;12.99;95.26;96254.56;6045758;23;20069;-96
2021/08/20 04:18:00;;;;;;;10.77;4.22;;;;;;;13.14;96.06;96266.16;6071788;23;20010;-96
2021/08/20 04:20:26;;;;;;;8.82;4.40;;;;;;;13.14;95.76;96287.22;6045437;23;20437;-96
2021/08/20 04:22:51;;;;;;;11.35;4.70;;;;;;;12.78;94.65;96221.09;6045591;23;20014;-95
2021/08/20 04:25:17;;;;;;;9.75;4.30;;;;;;;13.13;94.85;96283.00;6046217;23;20007;-95
2021/08/20 04:27:42;;;;;;;8.90;4.78;;;;;;;13.15;94.88;96277.81;6044428;23;20015;-96
2021/08/20 04:30:09;;;;;;;7.47;4.60;;;;;;;13.28;94.48;96298.13;6045295;23;20006;-96
2021/08/20 04:32:34;;;;;;;7.15;4.68;;;;;;;12.96;94.75;96250.06;6045079;23;20142;-96
2021/08/20 04:35:00;;;;;;;12.13;4.70;;;;;;;13.16;94.93;96280.09;6068816;23;20082;-95
2021/08/20 04:37:26;;;;;;;7.03;4.90;;;;;;;13.29;95.84;96302.34;6044788;23;20014;-96
2021/08/20 04:39:51;;;;;;;8.20;4.60;;;;;;;13.17;95.00;96283.56;6045875;23;20021;-96
2021/08/20 04:42:17;;;;;;;8.07;5.00;;;;;;;13.08;94.12;96266.09;6045602;23;20007;-96
2021/08/20 04:44:43;;;;;;;7.22;4.43;;;;;;;13.20;94.59;96286.06;6044549;23;20065;-96
2021/08/20 04:47:09;;;;;;;7.40;4.45;;;;;;;13.25;95.21;96282.69;6044788;23;20336;-96
2021/08/20 04:49:35;;;;;;;6.78;4.95;;;;;;;13.22;95.18;96266.56;6044548;23;20003;-96
2021/08/20 04:52:01;;;;;;;7.57;4.70;;;;;;;13.65;94.54;96316.66;6045558;23;20003;-96
2021/08/20 04:54:28;;;;;;;9.45;4.95;;;;;;;13.65;94.51;96313.19;6044972;23;20007;-96
2021/08/20 04:56:53;;;;;;;8.18;5.05;;;;;;;13.48;95.28;96291.91;6044908;23;20070;-96
2021/08/20 04:59:19;;;;;;;7.30;5.40;;;;;;;13.62;94.89;96323.06;6044328;23;20353;-96
2021/08/20 05:01:45;;;;;;;8.25;4.85;;;;;;;13.56;95.52;96303.16;6044284;23;20031;-95
2021/08/20 05:04:11;;;;;;;6.97;4.78;;;;;;;13.89;93.54;96321.88;6044306;23;20056;-96
2021/08/20 05:06:37;;;;;;;8.90;5.07;;;;;;;13.71;94.03;96301.09;6068187;23;20015;-96
2021/08/20 05:09:03;;;;;;;7.22;5.40;;;;;;;13.36;94.47;96277.38;6044446;23;20011;-96
2021/08/20 05:11:29;;;;;;;10.63;5.07;;;;;;;13.46;92.23;96278.00;6045700;23;20061;-95
2021/08/20 05:13:55;;;;;;;8.18;5.30;;;;;;;13.40;92.80;96254.59;6044023;23;20007;-95
2021/08/20 05:16:20;;;;;;;10.70;5.15;;;;;;;13.16;93.50;96224.81;6044556;23;20002;-95
2021/08/20 05:18:46;;;;;;;8.68;5.22;;;;;;;13.62;92.67;96288.34;6044370;23;20041;-96
2021/08/20 05:21:11;;;;;;;10.15;5.55;;;;;;;13.73;91.56;96289.69;6044271;23;20018;-95
2021/08/20 05:23:37;;;;;;;7.95;5.82;;;;;;;13.66;92.70;96265.56;6043897;23;19999;-95
2021/08/20 05:26:03;;;;;;;9.02;5.00;;;;;;;13.85;91.57;96277.69;6043737;23;20010;-95
2021/08/20 05:28:28;;;;;;;9.50;5.60;;;;;;;13.91;90.51;96296.84;6043180;23;20002;-96
2021/08/20 05:30:54;;;;;;;9.95;4.93;;;;;;;13.99;91.36;96303.38;6044043;23;20010;-95
2021/08/20 05:33:20;;;;;;;7.50;4.70;;;;;;;13.93;89.10;96306.06;6044328;23;20025;-96
2021/08/20 05:35:47;;;;;;;7.07;4.47;;;;;;;14.16;90.81;96342.50;6044502;23;20029;-96
2021/08/20 05:38:14;;;;;;;5.72;4.43;;;;;;;14.15;90.33;96328.13;6044235;23;20082;-96
2021/08/20 05:40:40;;;;;;;8.73;4.97;;;;;;;13.64;91.35;96255.16;6044276;23;20003;-96
2021/08/20 05:43:05;;;;;;;4.93;4.30;;;;;;;13.98;90.52;96301.88;6044269;23;20018;-96
2021/08/20 05:45:36;;;;;;;6.15;4.53;;;;;;;13.96;90.27;96301.63;6044482;23;20413;-95
2021/08/20 05:48:01;;;;;;;6.10;4.90;;;;;;;14.03;91.05;96312.84;6044340;23;20018;-96
2021/08/20 05:50:27;;;;;;;9.40;4.80;;;;;;;14.24;91.21;96348.31;6044264;23;19998;-95
2021/08/20 05:52:52;;;;;;;11.57;5.03;;;;;;;13.83;92.05;96282.88;6044252;23;19999;-96
2021/08/20 05:55:18;;;;;;;11.35;5.25;;;;;;;13.84;89.38;96292.53;6044261;23;20014;-96
2021/08/20 05:57:43;;;;;;;7.55;4.80;;;;;;;14.00;88.51;96313.81;6044171;23;20007;-96
2021/08/20 06:00:10;;;;;;;6.32;5.13;;;;;;;13.94;89.29;96299.34;6044128;23;20007;-96
2021/08/20 06:02:39;;;;;;;9.77;5.10;;;;;;;13.67;90.93;96253.41;6044027;23;20034;-96
2021/08/20 06:05:05;;;;;;;9.27;5.13;;;;;;;13.92;89.44;96284.69;6044110;23;20007;-96
2021/08/20 06:07:31;;;;;;;8.63;4.65;;;;;;;14.40;91.59;96358.66;6039751;23;20440;-95
2021/08/20 06:09:56;;;;;;;8.18;5.07;;;;;;;14.12;91.08;96309.22;6039463;23;20014;-96
2021/08/20 06:12:21;;;;;;;9.38;5.10;;;;;;;14.21;88.92;96308.31;6040682;23;20035;-96
2021/08/20 06:14:47;;;;;;;8.52;4.80;;;;;;;14.35;90.08;96334.75;6041057;23;20086;-95
2021/08/20 06:17:13;;;;;;;8.02;4.47;;;;;;;14.45;86.73;96343.53;6041283;23;20014;-96
2021/08/20 06:19:38;;;;;;;6.53;3.88;;;;;;;14.32;87.58;96322.81;6040472;23;20341;-96
2021/08/20 06:22:04;;;;;;;5.53;3.90;;;;;;;14.11;87.07;96275.72;6040493;23;20086;-96
2021/08/20 06:24:29;;;;;;;7.60;4.20;;;;;;;14.57;87.94;96334.22;6041026;23;20007;-95
2021/08/20 06:26:55;;;;;;;7.53;3.90;;;;;;;14.49;86.79;96300.38;6040965;23;20322;-96
2021/08/20 06:29:20;;;;;;;8.38;4.15;;;;;;;14.68;86.00;96332.34;6041114;23;20146;-95
2021/08/20 06:31:50;;;;;;;6.43;4.20;;;;;;;14.73;85.56;96330.13;6040917;23;20010;-96
2021/08/20 06:34:16;;;;;;;10.63;4.40;;;;;;;14.53;85.97;96298.16;6040992;23;20066;-96
2021/08/20 06:36:43;;;;;;;6.45;3.80;;;;;;;14.77;86.04;96331.41;6040985;23;20007;-95
2021/08/20 06:39:09;;;;;;;7.72;4.05;;;;;;;14.83;84.26;96331.44;6040985;23;20007;-95
2021/08/20 06:41:35;;;;;;;6.20;4.03;;;;;;;14.67;84.73;96303.50;6040624;23;20013;-96
2021/08/20 06:44:01;;;;;;;7.53;3.83;;;;;;;14.62;85.19;96298.75;6040940;23;20390;-95
2021/08/20 06:46:27;;;;;;;6.65;4.05;;;;;;;14.84;85.81;96322.00;6040748;23;20039;-95
2021/08/20 06:48:52;;;;;;;8.25;4.15;;;;;;;14.88;84.80;96317.81;6040814;23;20015;-96
2021/08/20 06:51:18;;;;;;;11.32;4.20;;;;;;;14.48;84.58;96263.34;6040616;23;20123;-95
2021/08/20 06:53:44;;;;;;;10.50;4.18;;;;;;;15.05;85.00;96333.59;6040740;23;20010;-95
2021/08/20 06:56:09;;;;;;;10.10;4.32;;;;;;;14.64;85.13;96277.13;6040850;23;20018;-96
2021/08/20 06:58:36;;;;;;;8.68;3.90;;;;;;;15.30;83.70;96367.56;6040730;23;20018;-96
2021/08/20 07:01:01;;;;;;;6.53;3.47;;;;;;;14.81;84.37;96290.94;6040456;23;20014;-95
2021/08/20 07:03:27;;;;;;;7.88;3.80;;;;;;;15.34;83.01;96368.06;6040379;23;20011;-95
2021/08/20 07:05:52;;;;;;;9.13;4.07;;;;;;;14.88;84.29;96297.94;6040538;23;20429;-96
2021/08/20 07:08:18;;;;;;;7.28;4.00;;;;;;;14.97;83.96;96314.16;6040344;23;20067;-95
2021/08/20 07:10:44;;;;;;;6.60;3.50;;;;;;;15.21;84.37;96341.16;6040544;23;20011;-96
2021/08/20 07:13:11;;;;;;;6.88;3.50;;;;;;;15.07;84.74;96295.56;6040869;23;20007;-96
2021/08/20 07:15:36;;;;;;;5.07;3.78;;;;;;;15.01;84.42;96298.25;6040568;23;20436;-96
2021/08/20 07:18:02;;;;;;;6.45;3.40;;;;;;;15.42;84.31;96347.22;6040525;23;20027;-96
2021/08/20 07:20:27;;;;;;;7.18;3.78;;;;;;;15.32;82.63;96324.78;6040021;23;20039;-96
2021/08/20 07:22:53;;;;;;;7.20;4.00;;;;;;;15.16;83.86;96298.84;6039848;23;20404;-96
2021/08/20 07:25:19;;;;;;;6.10;4.10;;;;;;;15.75;82.71;96367.81;6040598;23;20429;-95
2021/08/20 07:27:44;;;;;;;7.32;4.10;;;;;;;15.39;83.23;96307.94;6040403;23;20046;-96
2021/08/20 07:30:10;;;;;;;7.68;4.55;;;;;;;15.55;82.89;96331.09;6040409;23;20003;-95
2021/08/20 07:32:36;;;;;;;7.97;4.38;;;;;;;15.84;82.96;96378.56;6040446;23;20003;-96
2021/08/20 07:35:03;;;;;;;6.15;4.18;;;;;;;15.56;82.82;96316.22;6040697;23;20011;-95
2021/08/20 07:37:28;;;;;;;7.72;4.20;;;;;;;15.40;81.63;96295.75;6040357;23;20003;-95
2021/08/20 07:39:54;;;;;;;5.28;3.92;;;;;;;15.40;81.63;96295.75;6040635;23;20066;-95
2021/08/20 07:42:27;;;;;;;6.47;3.80;;;;;;;15.50;82.63;96314.66;6042470;23;20008;-96
2021/08/20 07:44:53;;;;;;;8.52;3.70;;;;;;;15.45;81.02;96302.47;6040070;23;20086;-92
2021/08/20 07:47:20;;;;;;;8.30;3.70;;;;;;;15.44;79.80;96298.97;6016584;23;20023;-92
2021/08/20 07:49:46;;;;;;;4.85;3.20;;;;;;;15.79;82.66;96343.69;6040244;23;20332;-93
2021/08/20 07:52:11;;;;;;;7.22;3.92;;;;;;;15.79;82.66;96343.69;6040156;23;20011;-92
2021/08/20 07:54:37;;;;;;;5.93;4.38;;;;;;;15.79;81.15;96319.06;6039428;23;20015;-93
2021/08/20 07:57:03;;;;;;;8.10;4.60;;;;;;;15.69;80.34;96302.09;6040166;23;20011;-92
2021/08/20 07:59:28;;;;;;;8.90;4.30;;;;;;;15.89;80.25;96329.28;6039370;23;20030;-92
2021/08/20 08:01:54;;;;;;;5.82;4.18;;;;;;;15.89;80.25;96329.28;6039808;23;20094;-92
2021/08/20 08:04:19;;;;;;;6.05;3.97;;;;;;;16.15;81.01;96342.06;6039920;23;20441;-92
2021/08/20 08:06:44;;;;;;;8.07;4.20;;;;;;;16.20;79.85;96330.38;6039905;23;20023;-93
2021/08/20 08:09:10;;;;;;;6.78;4.03;;;;;;;16.31;80.23;96326.91;6040099;23;20041;-92
2021/08/20 08:11:36;;;;;;;8.57;3.92;;;;;;;16.58;79.96;96356.31;6040010;23;20014;-92
2021/08/20 08:14:03;;;;;;;8.60;4.47;;;;;;;16.00;78.39;96289.47;6040120;23;20007;-93
2021/08/20 08:16:34;;;;;;;8.85;4.18;;;;;;;16.55;77.74;96367.53;6039557;23;20003;-92
2021/08/20 08:19:00;;;;;;;5.95;3.95;;;;;;;16.29;78.70;96310.94;6038634;23;20018;-93
2021/08/20 08:21:26;;;;;;;8.38;4.10;;;;;;;16.40;100.00;88591.41;6038478;23;20444;-93
2021/08/20 08:23:51;;;;;;;5.53;4.00;;;;;;;16.55;77.35;96335.38;6038252;23;20017;-91
2021/08/20 08:26:17;;;;;;;7.85;4.13;;;;;;;16.58;77.85;96323.44;6038022;23;20102;-92
2021/08/20 08:28:42;;;;;;;6.20;4.47;;;;;;;16.58;77.85;96323.44;6033347;23;20078;-92
2021/08/20 08:31:08;;;;;;;8.73;4.30;;;;;;;16.85;77.63;96338.41;6038539;23;20015;-93
2021/08/20 08:33:33;;;;;;;8.05;4.28;;;;;;;16.84;77.17;96322.47;6038960;23;20011;-92
2021/08/20 08:35:59;;;;;;;9.80;4.90;;;;;;;16.82;77.03;96303.00;6038748;23;20007;-93
2021/08/20 08:38:24;;;;;;;5.50;4.35;;;;;;;16.96;76.82;96310.97;6039116;23;20014;-91
2021/08/20 08:40:50;;;;;;;8.10;5.20;;;;;;;17.14;77.06;96317.91;6039464;23;20003;-92
2021/08/20 08:43:16;;;;;;;8.82;4.45;;;;;;;17.14;77.06;96317.91;6039024;23;20003;-93
2021/08/20 08:45:42;;;;;;;9.75;4.78;;;;;;;17.00;76.45;96269.56;6039398;23;20047;-92
2021/08/20 08:48:11;;;;;;;7.28;4.70;;;;;;;17.35;100.00;68426.72;6039262;23;20015;-92
2021/08/20 08:50:37;;;;;;;9.32;4.35;;;;;;;17.40;76.12;96286.66;6039052;23;20011;-92
2021/08/20 08:53:04;;;;;;;8.00;4.57;;;;;;;17.78;73.25;96343.44;6039275;23;20109;-92
2021/08/20 08:55:30;;;;;;;8.23;4.35;;;;;;;17.48;71.53;96309.59;6039342;23;20062;-92
2021/08/20 08:57:56;;;;;;;11.70;4.53;;;;;;;17.46;72.78;96312.09;6038810;23;20003;-92
2021/08/20 09:00:38;;;;;;;10.40;4.55;;;;;;;17.53;74.49;96306.81;6039343;23;20015;-92
2021/08/20 09:03:05;;;;;;;8.10;4.80;;;;;;;17.65;72.40;96298.53;6039108;23;20444;-92
2021/08/20 09:05:42;;;;;;;8.10;4.53;;;;;;;17.76;72.09;96315.00;6039032;23;20421;-93
2021/08/20 09:08:13;;;;;;;8.68;4.50;;;;;;;17.45;70.58;96280.41;6039302;23;20047;-92
2021/08/20 09:10:54;;;;;;;7.57;5.10;;;;;;;17.74;67.80;96320.25;6038668;23;20007;-92
2021/08/20 09:13:21;;;;;;;9.30;4.82;;;;;;;18.03;70.09;96349.06;6038808;23;20000;-92
2021/08/20 09:16:04;;;;;;;6.47;4.20;;;;;;;18.03;69.74;96322.34;6039073;23;20440;-92
2021/08/20 09:18:43;;;;;;;5.93;3.95;;;;;;;17.88;70.91;96293.72;6039380;23;20007;-92
2021/08/20 09:21:15;;;;;;;7.45;4.10;;;;;;;18.02;71.38;96303.63;6038870;23;20093;-93
2021/08/20 09:23:41;;;;;;;7.57;4.30;;;;;;;17.57;68.91;96246.16;6038001;23;20429;-92
2021/08/20 09:26:06;;;;;;;6.70;4.05;;;;;;;18.20;70.76;96318.75;6038794;23;20011;-93
2021/08/20 09:28:33;;;;;;;9.07;4.30;;;;;;;18.15;70.74;96300.28;6038805;23;20079;-92
2021/08/20 09:31:12;;;;;;;7.50;4.10;;;;;;;18.52;69.85;96349.28;6039495;23;20433;-93
2021/08/20 09:33:48;;;;;;;7.00;3.90;;;;;;;18.15;70.83;96259.81;6038980;23;20003;-93
2021/08/20 09:36:29;;;;;;;8.25;4.43;;;;;;;18.57;70.25;96319.00;6039281;23;20067;-92
2021/08/20 09:38:56;;;;;;;7.43;4.13;;;;;;;18.03;70.54;96230.94;6039029;23;20102;-92
2021/08/20 09:41:30;;;;;;;7.00;4.10;;;;;;;18.78;69.17;96327.59;6038908;23;20098;-92
2021/08/20 09:44:07;;;;;;;8.20;4.07;;;;;;;18.72;69.62;96295.91;6039010;23;20011;-93
2021/08/20 09:46:44;;;;;;;6.90;4.10;;;;;;;18.63;68.66;96272.19;6040256;23;20094;-92
2021/08/20 09:49:10;;;;;;;8.45;4.70;;;;;;;19.04;69.41;96321.63;6041093;23;20011;-92
2021/08/20 09:51:46;;;;;;;5.07;3.85;;;;;;;18.96;69.23;96279.44;6041149;23;20761;-92
2021/08/20 09:54:12;;;;;;;6.90;4.40;;;;;;;19.32;69.48;96313.06;6040228;23;20007;-93
2021/08/20 09:56:39;;;;;;;8.60;4.40;;;;;;;19.06;68.53;96272.31;6040235;23;20011;-92
2021/08/20 09:59:12;;;;;;;6.15;3.80;;;;;;;19.02;66.62;96251.88;6041192;23;20014;-93
2021/08/20 10:01:44;;;;;;;5.85;4.00;;;;;;;18.75;67.46;96210.38;6041031;23;20038;-92
2021/08/20 10:04:12;;;;;;;7.30;4.10;;;;;;;19.30;64.37;96296.34;6040883;23;20030;-92
2021/08/20 10:06:43;;;;;;;7.07;3.50;;;;;;;19.36;66.50;96305.28;6045478;23;20015;-92
2021/08/20 10:09:17;;;;;;;4.75;3.78;;;;;;;19.56;68.15;96311.56;6044899;23;20094;-93
2021/08/20 10:11:52;;;;;;;4.80;3.97;;;;;;;19.10;69.25;96247.25;6045374;23;20471;-93
2021/08/20 10:14:20;;;;;;;4.85;3.80;;;;;;;19.45;68.17;96276.66;6045781;23;20023;-92
2021/08/20 10:16:45;;;;;;;5.85;3.80;;;;;;;19.30;67.83;96243.28;6045431;23;20086;-92
2021/08/20 10:19:12;;;;;;;7.35;4.50;;;;;;;19.56;67.71;96281.28;6045243;23;20030;-91
2021/08/20 10:21:40;;;;;;;8.20;4.85;;;;;;;19.82;68.41;96302.78;6045350;23;20102;-92
2021/08/20 10:24:07;;;;;;;9.27;5.18;;;;;;;19.79;68.45;96301.06;6045653;23;20014;-93
2021/08/20 10:26:37;;;;;;;8.32;4.93;;;;;;;19.40;65.86;96236.16;6045425;23;20010;-93
2021/08/20 10:29:03;;;;;;;6.60;4.05;;;;;;;19.37;64.85;96243.44;6045762;23;20109;-92
2021/08/20 10:31:30;;;;;;;7.72;4.90;;;;;;;19.41;64.57;96236.91;6045648;23;20013;-93
2021/08/20 10:33:55;;;;;;;7.45;5.00;;;;;;;19.69;67.02;96258.59;6046898;23;19999;-93
2021/08/20 10:36:38;;;;;;;7.50;4.80;;;;;;;19.80;64.94;96255.69;6049300;23;20456;-91
2021/08/20 10:39:04;;;;;;;6.18;4.47;;;;;;;19.92;65.62;96265.31;6049708;23;20010;-91
2021/08/20 10:41:30;;;;;;;8.50;4.63;;;;;;;20.17;65.84;96293.50;6046241;23;20014;-91
2021/08/20 10:44:12;;;;;;;9.45;4.75;;;;;;;19.57;62.67;96198.13;6045388;23;20010;-91
2021/08/20 10:46:38;;;;;;;8.23;4.43;;;;;;;20.13;60.87;96288.31;6045747;23;20007;-91
2021/08/20 10:49:25;;;;;;;8.32;5.05;;;;;;;20.02;62.58;96249.88;6045226;23;20006;-91
2021/08/20 10:51:55;;;;;;;5.28;3.20;;;;;;;20.20;51.66;96286.97;6045660;23;20090;-91
2021/08/20 10:54:30;;;;;;;;;;;;;;;20.24;56.05;96286.66;6045765;23;20007;-91
2021/08/20 10:56:55;;;;;;;5.18;3.20;;;;;;;20.01;54.28;96248.38;6044743;23;19906;-91
2021/08/20 10:59:36;;;;;;;6.55;3.10;;;;;;;20.38;58.99;96286.19;6045088;23;20085;-91
2021/08/20 11:02:21;;;;;;;4.80;3.58;;;;;;;20.45;60.02;96292.34;6045005;23;20322;-91
2021/08/20 11:05:10;;;;;;;3.33;2.97;;;;;;;20.48;51.48;96278.28;6044999;23;20085;-92
2021/08/20 11:07:39;;;;;;;4.35;3.10;;;;;;;20.56;55.80;96287.44;6044866;23;20121;-91
2021/08/20 11:10:08;;;;;;;4.30;3.20;;;;;;;20.58;59.27;96270.38;6045079;23;20013;-92
2021/08/20 11:12:52;;;;;;;5.93;3.08;;;;;;;20.67;60.29;96278.25;6045282;23;20014;-91
2021/08/20 11:15:21;;;;;;;5.85;3.63;;;;;;;20.73;58.71;96267.84;6045053;23;20432;-91
2021/08/20 11:17:49;;;;;;;4.07;3.22;;;;;;;20.73;55.93;96273.38;6044767;23;20086;-92
2021/08/20 11:20:19;;;;;;;4.57;3.10;;;;;;;20.50;57.66;96230.88;6045049;23;20440;-91
2021/08/20 11:23:07;;;;;;;2.83;2.33;;;;;;;20.47;54.88;96240.22;6044560;23;20094;-93
2021/08/20 11:25:40;;;;;;;4.03;2.72;;;;;;;20.30;58.60;96224.66;6044618;23;20026;-93
2021/08/20 11:28:21;;;;;;;3.28;2.70;;;;;;;20.50;61.42;96256.44;6044891;23;20011;-92
2021/08/20 11:30:58;;;;;;;;;;;;;;;20.56;61.79;96276.41;6045553;23;20003;-92
2021/08/20 11:33:46;;;;;;;3.90;2.75;;;;;;;20.55;60.09;96257.63;6045114;23;19913;-93
2021/08/20 11:36:18;;;;;;;2.80;2.50;;;;;;;20.36;61.28;96227.31;6045153;23;20018;-93
2021/08/20 11:38:49;;;;;;;2.90;2.70;;;;;;;20.19;56.21;96210.28;6044798;23;20032;-92
2021/08/20 11:41:55;;;;;;;2.80;2.50;;;;;;;20.15;61.23;96210.59;6044787;23;20006;-93
2021/08/20 11:44:18;;;;;;;;;;;;;;;20.67;57.39;96273.47;6064994;23;20007;-93